Detroit, Maine
Current Conditions -  °F | °C
As of 2:53 PM on Wednesday 17 Dec 2014 (Local Time) from KBGR Reporting Station
Light Rain Light Rain  
Wind Chill: 30°   Ceiling: 1400
Heat Index: 38°   Visibility: 4mi
Dew Point: 36°   Wind: 13mph
Humidity: 93%   Direction: 30°NNE
Pressure: 29.7"   Gusts: NA
Location:  44.79°N, 69.3°W
Report Text: KBGR 171953Z 03011KT 4SM -RA BR SCT007 OVC014 03/02 A2970 RMK AO2 SLP061 P0017 T00330022
Loading
Personal Weather Stations






























Interactive Weather Map New forecast layout! Learn more

10-Day Weather Forecast

Advertisements
Track Severe Weather on mobile